MSC Suez — HPMS — position and weather

sailwx.info

Track history (hours):
 
Tides and Currents Weather Stations Pressure Air Temp Water Temp Dewpoint Dewpoint Depression Visibility Wind Speed Wind Dir Waves Ship Positions

MSC Suez

Last reported at 2018-May-22 19:28 UTC. Time now 2018-May-22 19:51 UTC.
Position N 51°17' E 004°15'.

Length 237 m; draft 6.2 m.

Type: Ship. MMSI: 355289000.

Date/timePositionNaut miles runAvg speedWind from/ knotsBaromVisibWave heightAir tempDewpointWater temp
2018-May-22 19:28N 51°17' E 004°15'0 0.0
2018-May-22 18:58N 51°17' E 004°15'0 0.0
2018-May-22 18:28N 51°17' E 004°15'0 0.0
2018-May-22 17:58N 51°17' E 004°15'0 0.0
2018-May-22 17:25N 51°17' E 004°15'0 0.0
2018-May-22 16:58N 51°17' E 004°15'0 0.0
2018-May-22 16:28N 51°17' E 004°15'0 0.0
2018-May-22 15:58N 51°17' E 004°15'0 0.0
2018-May-22 15:28N 51°17' E 004°15'0 0.0
2018-May-22 14:58N 51°17' E 004°15'0 0.0
2018-May-22 14:28N 51°17' E 004°15'0 0.0
2018-May-22 13:58N 51°17' E 004°15'0 0.0
2018-May-22 13:28N 51°17' E 004°15'0 0.0
2018-May-22 12:58N 51°17' E 004°15'0 0.0
2018-May-22 12:25N 51°17' E 004°15'0 0.0
2018-May-22 11:58N 51°17' E 004°15'0 0.0
2018-May-22 11:28N 51°17' E 004°15'0 0.0
2018-May-22 10:55N 51°17' E 004°15'0 0.0
2018-May-22 10:28N 51°17' E 004°15'0 0.0
2018-May-22 09:58N 51°17' E 004°15'0 0.0
2018-May-22 09:22N 51°17' E 004°15'0 0.0
2018-May-22 08:55N 51°17' E 004°15'0 0.0
2018-May-22 08:28N 51°17' E 004°15'0 0.0
2018-May-22 07:52N 51°17' E 004°15'0 0.0
2018-May-22 07:28N 51°17' E 004°15'0 0.0
2018-May-22 06:58N 51°17' E 004°15'0 0.0
2018-May-22 06:28N 51°17' E 004°15'0 0.0
2018-May-22 05:58N 51°17' E 004°15'0 0.0
2018-May-22 05:28N 51°17' E 004°15'0 0.0
2018-May-22 04:58N 51°17' E 004°15'0 0.0
2018-May-22 04:28N 51°17' E 004°15'0 0.0
2018-May-22 03:58N 51°17' E 004°15'0 0.1
2018-May-22 03:28N 51°17' E 004°15'0 0.4
2018-May-22 02:58N 51°17' E 004°15'0 0.0
2018-May-22 02:25N 51°17' E 004°15'0 0.0
2018-May-22 01:58N 51°17' E 004°15'0 0.0
2018-May-22 01:28N 51°17' E 004°15'0 0.0
2018-May-22 00:58N 51°17' E 004°15'0 0.0
2018-May-22 00:28N 51°17' E 004°15'0 0.0
2018-May-21 23:58N 51°17' E 004°15'0 0.0
2018-May-21 23:28N 51°17' E 004°15'0 0.0
2018-May-21 22:52N 51°17' E 004°15'0 0.0
2018-May-21 22:28N 51°17' E 004°15'0 0.0
2018-May-21 21:58N 51°17' E 004°15'0 0.1
2018-May-21 21:28N 51°17' E 004°15'0 0.1
2018-May-21 20:58N 51°17' E 004°15'0 0.0
2018-May-21 20:28N 51°17' E 004°15'0 0.0
2018-May-21 19:58N 51°17' E 004°15'0 0.0
2018-May-21 19:28N 51°17' E 004°15'0 0.0
2018-May-21 18:55N 51°17' E 004°15'0 0.0
2018-May-21 18:28N 51°17' E 004°15'0 0.0
2018-May-21 17:58N 51°17' E 004°15'0 0.0
2018-May-21 17:28N 51°17' E 004°15'0 0.0
2018-May-21 16:58N 51°17' E 004°15'0 0.0
2018-May-21 16:28N 51°17' E 004°15'0 0.0
2018-May-21 15:58N 51°17' E 004°15'0 0.0
2018-May-21 15:28N 51°17' E 004°15'0 0.0
2018-May-21 14:55N 51°17' E 004°15'0 0.0
2018-May-21 14:28N 51°17' E 004°15'0 0.0
2018-May-21 13:58N 51°17' E 004°15'0 0.0
2018-May-21 13:28N 51°17' E 004°15'0 0.0
2018-May-21 12:58N 51°17' E 004°15'0 0.0
2018-May-21 12:28N 51°17' E 004°15'0 0.0
2018-May-21 11:55N 51°17' E 004°15'0 0.0
2018-May-21 11:28N 51°17' E 004°15'1 1.6
2018-May-21 11:00N 51°18' E 004°16'3 5.5
2018-May-21 10:30N 51°20' E 004°16'1 1.4
2018-May-21 10:00N 51°21' E 004°17'0 0.0
2018-May-21 09:27N 51°21' E 004°17'1 1.5
2018-May-21 09:00N 51°20' E 004°18'4 7.0
2018-May-21 08:30N 51°17' E 004°20'2 2.9
2018-May-21 07:59N 51°16' E 004°21'0 0.0
2018-May-21 07:29N 51°16' E 004°21'0 0.0
2018-May-21 06:59N 51°16' E 004°21'0 0.0
2018-May-21 06:29N 51°16' E 004°21'0 0.0
2018-May-21 05:59N 51°16' E 004°21'0 0.0
2018-May-21 05:29N 51°16' E 004°21'0 0.0
2018-May-21 04:59N 51°16' E 004°21'0 0.0
2018-May-21 04:29N 51°16' E 004°21'0 0.0
2018-May-21 03:59N 51°16' E 004°21'0 0.0
2018-May-21 03:29N 51°16' E 004°21'0 0.0
2018-May-21 02:59N 51°16' E 004°21'0 0.0
2018-May-21 02:29N 51°16' E 004°21'0 0.0
2018-May-21 01:59N 51°16' E 004°21'0 0.0
2018-May-21 01:29N 51°16' E 004°21'0 0.0
2018-May-21 00:59N 51°16' E 004°21'0 0.0
2018-May-21 00:29N 51°16' E 004°21'0 0.0
2018-May-20 23:59N 51°16' E 004°21'0 0.0
2018-May-20 23:29N 51°16' E 004°21'0 0.0
2018-May-20 22:59N 51°16' E 004°21'0 0.0
2018-May-20 22:29N 51°16' E 004°21'0 0.0
2018-May-20 21:59N 51°16' E 004°21'0 0.0
2018-May-20 21:29N 51°16' E 004°21'0 0.0
2018-May-20 20:59N 51°16' E 004°21'0 0.0
2018-May-20 20:29N 51°16' E 004°21'0 0.0
2018-May-20 19:56N 51°16' E 004°21'0 0.0
2018-May-20 19:29N 51°16' E 004°21'0 0.0
2018-May-20 18:59N 51°16' E 004°21'0 0.0
2018-May-20 18:29N 51°16' E 004°21'0 0.0
2018-May-20 17:59N 51°16' E 004°21'0 0.0
2018-May-20 17:29N 51°16' E 004°21'0 0.0
2018-May-20 16:59N 51°16' E 004°21'0 0.0
2018-May-20 16:29N 51°16' E 004°21'0 0.0
2018-May-20 15:59N 51°16' E 004°21'0 0.0
2018-May-20 15:29N 51°16' E 004°21'0 0.0
2018-May-20 14:59N 51°16' E 004°21'0 0.0
2018-May-20 14:29N 51°16' E 004°21'0 0.0
2018-May-20 13:59N 51°16' E 004°21'0 0.0
2018-May-20 13:26N 51°16' E 004°21'0 0.0
2018-May-20 12:59N 51°16' E 004°21'0 0.0
2018-May-20 12:29N 51°16' E 004°21'0 0.0
2018-May-20 11:59N 51°16' E 004°21'0 0.0
2018-May-20 11:29N 51°16' E 004°21'0 0.0
2018-May-20 10:59N 51°16' E 004°21'0 0.0
2018-May-20 10:29N 51°16' E 004°21'0 0.0
2018-May-20 09:59N 51°16' E 004°21'0 0.0
2018-May-20 09:29N 51°16' E 004°21'0 0.0
2018-May-20 08:59N 51°16' E 004°21'0 0.0
2018-May-20 08:29N 51°16' E 004°21'0 0.0
2018-May-20 07:59N 51°16' E 004°21'0 0.0
2018-May-20 07:29N 51°16' E 004°21'0 0.0
2018-May-20 06:59N 51°16' E 004°21'0 0.0
2018-May-20 06:29N 51°16' E 004°21'0 0.0
2018-May-20 05:59N 51°16' E 004°21'0 0.0
2018-May-20 05:29N 51°16' E 004°21'0 0.0
2018-May-20 04:59N 51°16' E 004°21'0 0.0
2018-May-20 04:29N 51°16' E 004°21'0 0.0
2018-May-20 03:59N 51°16' E 004°21'0 0.0
2018-May-20 03:29N 51°16' E 004°21'0 0.0
2018-May-20 02:59N 51°16' E 004°21'0 0.0
2018-May-20 02:29N 51°16' E 004°21'0 0.0
2018-May-20 01:59N 51°16' E 004°21'0 0.0
2018-May-20 01:26N 51°16' E 004°21'0 0.0
2018-May-20 00:59N 51°16' E 004°21'0 0.0
2018-May-20 00:29N 51°16' E 004°21'0 0.0
2018-May-19 23:59N 51°16' E 004°21'0 0.0
2018-May-19 23:29N 51°16' E 004°21'0 0.0
2018-May-19 22:59N 51°16' E 004°21'0 0.0
2018-May-19 22:29N 51°16' E 004°21'0 0.0
2018-May-19 21:59N 51°16' E 004°21'0 0.0
2018-May-19 21:29N 51°16' E 004°21'0 0.0
2018-May-19 20:59N 51°16' E 004°21'0 0.0
2018-May-19 20:26N 51°16' E 004°21'0 0.0
2018-May-19 19:59N 51°16' E 004°21'0 0.0
2018-May-19 19:29N 51°16' E 004°21'0 0.0
2018-May-19 18:59N 51°16' E 004°21'0 0.0
2018-May-19 18:29N 51°16' E 004°21'0 0.0
2018-May-19 17:59N 51°16' E 004°21'0 0.0
2018-May-19 17:29N 51°16' E 004°21'0 0.0
2018-May-19 16:59N 51°16' E 004°21'0 0.0
2018-May-19 16:29N 51°16' E 004°21'0 0.0
2018-May-19 15:59N 51°16' E 004°21'0 0.0
2018-May-19 15:29N 51°16' E 004°21'0 0.0
2018-May-19 14:59N 51°16' E 004°21'0 0.0
2018-May-19 14:29N 51°16' E 004°21'0 0.0
2018-May-19 13:59N 51°16' E 004°21'0 0.0
2018-May-19 13:29N 51°16' E 004°21'0 0.0
2018-May-19 12:59N 51°16' E 004°21'0 0.0
2018-May-19 12:26N 51°16' E 004°21'0 0.0
2018-May-19 11:59N 51°16' E 004°21'0 0.0
2018-May-19 11:29N 51°16' E 004°21'0 0.0
2018-May-19 10:59N 51°16' E 004°21'0 0.0
2018-May-19 10:29N 51°16' E 004°21'0 0.0
2018-May-19 09:59N 51°16' E 004°21'0 0.0
2018-May-19 09:29N 51°16' E 004°21'0 0.0
2018-May-19 08:59N 51°16' E 004°21'0 0.0
2018-May-19 08:29N 51°16' E 004°21'0 0.0
2018-May-19 07:59N 51°16' E 004°21'0 0.0
2018-May-19 07:29N 51°16' E 004°21'0 0.0
2018-May-19 06:59N 51°16' E 004°21'0 0.0
2018-May-19 06:29N 51°16' E 004°21'0 0.0
2018-May-19 05:59N 51°16' E 004°21'0 0.0
2018-May-19 05:29N 51°16' E 004°21'0 0.0
2018-May-19 04:59N 51°16' E 004°21'0 0.0
2018-May-19 04:29N 51°16' E 004°21'0 0.0
2018-May-19 03:59N 51°16' E 004°21'0 0.0
2018-May-19 03:29N 51°16' E 004°21'0 0.0
2018-May-19 02:59N 51°16' E 004°21'0 0.0
2018-May-19 02:29N 51°16' E 004°21'0 0.0
2018-May-19 01:59N 51°16' E 004°21'0 0.0
2018-May-19 01:29N 51°16' E 004°21'0 0.0
2018-May-19 00:59N 51°16' E 004°21'0 0.0
2018-May-19 00:29N 51°16' E 004°21'0 0.0
2018-May-18 23:59N 51°16' E 004°21'0 0.0
2018-May-18 23:29N 51°16' E 004°21'0 0.0
2018-May-18 22:59N 51°16' E 004°21'0 0.0
2018-May-18 22:29N 51°16' E 004°21'0 0.0
2018-May-18 21:59N 51°16' E 004°21'0 0.0
2018-May-18 21:29N 51°16' E 004°21'0 0.0
2018-May-18 20:59N 51°16' E 004°21'0 0.0
2018-May-18 20:29N 51°16' E 004°21'0 0.0
2018-May-18 19:59N 51°16' E 004°21'0 0.0
2018-May-18 19:29N 51°16' E 004°21'0 0.0
2018-May-18 18:59N 51°16' E 004°21'0 0.0
2018-May-18 18:29N 51°16' E 004°21'0 0.0
2018-May-18 17:59N 51°16' E 004°21'0 0.0
2018-May-18 17:29N 51°16' E 004°21'0 0.0
2018-May-18 16:59N 51°16' E 004°21'0 0.0
2018-May-18 16:29N 51°16' E 004°21'0 0.0
2018-May-18 15:59N 51°16' E 004°21'0 0.0
2018-May-18 15:29N 51°16' E 004°21'0 0.0
2018-May-18 14:59N 51°16' E 004°21'0 0.0
2018-May-18 14:29N 51°16' E 004°21'0 0.0
2018-May-18 13:59N 51°16' E 004°21'0 0.0
2018-May-18 13:29N 51°16' E 004°21'0 0.0
2018-May-18 12:59N 51°16' E 004°21'0 0.0
2018-May-18 12:29N 51°16' E 004°21'0 0.0
2018-May-18 11:59N 51°16' E 004°21'0 0.0
2018-May-18 11:29N 51°16' E 004°21'0 0.0
2018-May-18 10:59N 51°16' E 004°21'0 0.0
2018-May-18 10:29N 51°16' E 004°21'0 0.1
2018-May-18 09:59N 51°16' E 004°21'1 0.9
2018-May-18 09:26N 51°15' E 004°22'0 0.2
2018-May-18 08:59N 51°15' E 004°21'0 0.0
2018-May-18 08:29N 51°15' E 004°21'0 0.0
2018-May-18 07:59N 51°15' E 004°21'0 0.0
2018-May-18 07:29N 51°15' E 004°21'0 0.0
2018-May-18 06:59N 51°15' E 004°21'0 0.0
2018-May-18 06:29N 51°15' E 004°21'0 0.0
2018-May-18 05:59N 51°15' E 004°21'0 0.0
2018-May-18 05:29N 51°15' E 004°21'0 0.0
2018-May-18 04:59N 51°15' E 004°21'0 0.0
2018-May-18 04:29N 51°15' E 004°21'0 0.0
2018-May-18 03:56N 51°15' E 004°21'0 0.0
2018-May-18 03:29N 51°15' E 004°21'0 0.0
2018-May-18 02:59N 51°15' E 004°21'0 0.0
2018-May-18 02:29N 51°15' E 004°21'0 0.0
2018-May-18 01:59N 51°15' E 004°21'0 0.0
2018-May-18 01:26N 51°15' E 004°21'0 0.0
2018-May-18 00:59N 51°15' E 004°21'0 0.0
2018-May-18 00:29N 51°15' E 004°21'0 0.0
2018-May-17 23:59N 51°15' E 004°21'0 0.0
2018-May-17 23:29N 51°15' E 004°21'0 0.0
2018-May-17 22:59N 51°15' E 004°21'0 0.0
2018-May-17 22:29N 51°15' E 004°21'0 0.0
2018-May-17 21:56N 51°15' E 004°21'0 0.0
2018-May-17 21:29N 51°15' E 004°21'0 0.0
2018-May-17 20:56N 51°15' E 004°21'0 0.0
2018-May-17 20:26N 51°15' E 004°21'0 0.0
2018-May-17 19:59N 51°15' E 004°21'0 0.0
2018-May-17 19:29N 51°15' E 004°21'0 0.0
2018-May-17 18:59N 51°15' E 004°21'0 0.0
2018-May-17 18:29N 51°15' E 004°21'0 0.0
2018-May-17 17:59N 51°15' E 004°21'0 0.0
2018-May-17 17:29N 51°15' E 004°21'0 0.0
2018-May-17 16:59N 51°15' E 004°21'0 0.0
2018-May-17 16:29N 51°15' E 004°21'0 0.0
2018-May-17 15:59N 51°15' E 004°21'0 0.0
2018-May-17 15:23N 51°15' E 004°21'0 0.0
2018-May-17 14:59N 51°15' E 004°21'0 0.0
2018-May-17 14:29N 51°15' E 004°21'0 0.0
2018-May-17 13:59N 51°15' E 004°21'0 0.0
2018-May-17 13:29N 51°15' E 004°21'0 0.0
2018-May-17 12:53N 51°15' E 004°21'0 0.0
2018-May-17 12:29N 51°15' E 004°21'0 0.0
2018-May-17 11:59N 51°15' E 004°21'0 0.0
2018-May-17 11:29N 51°15' E 004°21'0 0.0
2018-May-17 10:59N 51°15' E 004°21'0 0.0
2018-May-17 10:26N 51°15' E 004°21'0 0.0
2018-May-17 09:53N 51°15' E 004°21'0 0.0
2018-May-17 09:29N 51°15' E 004°21'0 0.0
2018-May-17 08:59N 51°15' E 004°21'0 0.0
2018-May-17 08:29N 51°15' E 004°21'0 0.0
2018-May-17 07:59N 51°15' E 004°21'0 0.0
2018-May-17 07:29N 51°15' E 004°21'0 0.0
2018-May-17 06:53N 51°15' E 004°21'0 0.0
2018-May-17 06:23N 51°15' E 004°21'0 0.0
2018-May-17 05:53N 51°15' E 004°21'0 0.0
2018-May-17 05:26N 51°15' E 004°21'0 0.0
2018-May-17 04:59N 51°15' E 004°21'0 0.0
2018-May-17 04:29N 51°15' E 004°21'0 0.0
2018-May-17 03:59N 51°15' E 004°21'0 0.0
2018-May-17 03:29N 51°15' E 004°21'0 0.0
2018-May-17 02:59N 51°15' E 004°21'0 0.0
2018-May-17 02:29N 51°15' E 004°21'0 0.0
2018-May-17 01:59N 51°15' E 004°21'0 0.0
2018-May-17 01:26N 51°15' E 004°21'0 0.0
2018-May-17 00:59N 51°15' E 004°21'0 0.0
2018-May-17 00:29N 51°15' E 004°21'0 0.0
2018-May-16 23:59N 51°15' E 004°21'0 0.0
2018-May-16 23:29N 51°15' E 004°21'0 0.0
2018-May-16 22:59N 51°15' E 004°21'0 0.0
2018-May-16 22:29N 51°15' E 004°21'0 0.0
2018-May-16 21:59N 51°15' E 004°21'0 0.0
2018-May-16 21:29N 51°15' E 004°21'0 0.0
2018-May-16 20:59N 51°15' E 004°21'0 0.0
2018-May-16 20:29N 51°15' E 004°21'0 0.0
2018-May-16 19:56N 51°15' E 004°21'0 0.0
2018-May-16 19:29N 51°15' E 004°21'0 0.0
2018-May-16 18:59N 51°15' E 004°21'0 0.0
2018-May-16 18:29N 51°15' E 004°21'0 0.0
2018-May-16 17:59N 51°15' E 004°21'0 0.0
2018-May-16 17:26N 51°15' E 004°21'0 0.0
2018-May-16 16:59N 51°15' E 004°21'0 0.0
2018-May-16 16:29N 51°15' E 004°21'0 0.0
2018-May-16 15:59N 51°15' E 004°21'0 0.0
2018-May-16 15:29N 51°15' E 004°21'0 0.0
2018-May-16 14:59N 51°15' E 004°21'0 0.0
2018-May-16 14:29N 51°15' E 004°21'0 0.0
2018-May-16 13:59N 51°15' E 004°21'0 0.0
2018-May-16 13:29N 51°15' E 004°21'0 0.0
2018-May-16 12:56N 51°15' E 004°21'0 0.0
2018-May-16 12:29N 51°15' E 004°21'0 0.0
2018-May-16 11:59N 51°15' E 004°21'0 0.0
2018-May-16 11:29N 51°15' E 004°21'0 0.0
2018-May-16 10:59N 51°15' E 004°21'0 0.0
2018-May-16 10:29N 51°15' E 004°21'0 0.0
2018-May-16 09:59N 51°15' E 004°21'0 0.0
2018-May-16 09:29N 51°15' E 004°21'0 0.0
2018-May-16 08:59N 51°15' E 004°21'0 0.0
2018-May-16 08:29N 51°15' E 004°21'0 0.0
2018-May-16 07:59N 51°15' E 004°21'0 0.0
2018-May-16 07:29N 51°15' E 004°21'0 0.0
2018-May-16 06:59N 51°15' E 004°21'0 0.0
2018-May-16 06:29N 51°15' E 004°21'0 0.0
2018-May-16 05:59N 51°15' E 004°21'0 0.0
2018-May-16 05:26N 51°15' E 004°21'0 0.0
2018-May-16 04:59N 51°15' E 004°21'0 0.0
2018-May-16 04:29N 51°15' E 004°21'0 0.0
2018-May-16 03:59N 51°15' E 004°21'0 0.0
2018-May-16 03:29N 51°15' E 004°21'0 0.0
2018-May-16 02:59N 51°15' E 004°21'0 0.0
2018-May-16 02:29N 51°15' E 004°21'0 0.0
2018-May-16 01:59N 51°15' E 004°21'0 0.0
2018-May-16 01:29N 51°15' E 004°21'0 0.0
2018-May-16 00:56N 51°15' E 004°21'0 0.0
2018-May-16 00:30N 51°15' E 004°21'0 0.0
2018-May-16 00:00N 51°15' E 004°21'0 0.0
2018-May-15 23:30N 51°15' E 004°21'0 0.0
2018-May-15 23:00N 51°15' E 004°21'0 0.0
2018-May-15 22:30N 51°15' E 004°21'0 0.0
2018-May-15 22:00N 51°15' E 004°21'0 0.0
2018-May-15 21:30N 51°15' E 004°21'0 0.0
2018-May-15 21:00N 51°15' E 004°21'0 0.0
2018-May-15 20:27N 51°15' E 004°21'0 0.0
2018-May-15 19:57N 51°15' E 004°21'0 0.0
2018-May-15 19:30N 51°15' E 004°21'0 0.0
2018-May-15 19:00N 51°15' E 004°21'0 0.0
2018-May-15 18:30N 51°15' E 004°21'0 0.0
2018-May-15 18:00N 51°15' E 004°21'0 0.0
2018-May-15 17:30N 51°15' E 004°21'0 0.0
2018-May-15 17:00N 51°15' E 004°21'0 0.0
2018-May-15 16:30N 51°15' E 004°21'0 0.0
2018-May-15 16:00N 51°15' E 004°21'0 0.0
2018-May-15 15:30N 51°15' E 004°21'0 0.0
2018-May-15 15:00N 51°15' E 004°21'0 0.0
2018-May-15 14:30N 51°15' E 004°21'0 0.0
2018-May-15 14:00N 51°15' E 004°21'0 0.0
2018-May-15 13:30N 51°15' E 004°21'0 0.0
2018-May-15 13:00N 51°15' E 004°21'0 0.0
2018-May-15 12:30N 51°15' E 004°21'0 0.0
2018-May-15 12:00N 51°15' E 004°21'0 0.0
2018-May-15 11:30N 51°15' E 004°21'0 0.0
2018-May-15 11:00N 51°15' E 004°21'0 0.0
2018-May-15 10:30N 51°15' E 004°21'0 0.0
2018-May-15 10:00N 51°15' E 004°21'0 0.0
2018-May-15 09:30N 51°15' E 004°21'0 0.0
2018-May-15 09:00N 51°15' E 004°21'0 0.0
2018-May-15 08:30N 51°15' E 004°21'0 0.0
2018-May-15 08:00N 51°15' E 004°21'0 0.0
2018-May-15 07:30N 51°15' E 004°21'0 0.0
2018-May-15 07:00N 51°15' E 004°21'0 0.0
2018-May-15 06:30N 51°15' E 004°21'0 0.0
2018-May-15 05:30N 51°15' E 004°21'0 0.0
2018-May-15 05:00N 51°15' E 004°21'0 0.0
2018-May-15 04:30N 51°15' E 004°21'0 0.0
2018-May-15 04:00N 51°15' E 004°21'0 0.0
2018-May-15 03:30N 51°15' E 004°21'0 0.0
2018-May-15 03:00N 51°15' E 004°21'0 0.0
2018-May-15 02:30N 51°15' E 004°21'0 0.0
2018-May-15 02:00N 51°15' E 004°21'0 0.0
2018-May-15 01:30N 51°15' E 004°21'0 0.0
2018-May-15 01:00N 51°15' E 004°21'0 0.0
2018-May-15 00:30N 51°15' E 004°21'0 0.0
2018-May-15 00:00N 51°15' E 004°21'0 0.0
2018-May-14 23:30N 51°15' E 004°21'0 0.0
2018-May-14 23:00N 51°15' E 004°21'0 0.0
2018-May-14 22:30N 51°15' E 004°21'0 0.0
2018-May-14 21:57N 51°15' E 004°21'0 0.0
2018-May-14 21:30N 51°15' E 004°21'0 0.0
2018-May-14 21:00N 51°15' E 004°21'0 0.0
2018-May-14 20:30N 51°15' E 004°21'0 0.0
2018-May-14 20:00N 51°15' E 004°21'0 0.0
2018-May-14 19:30N 51°15' E 004°21'0 0.0
2018-May-14 19:00N 51°15' E 004°21'0 0.0
2018-May-14 18:30N 51°15' E 004°21'0 0.0
2018-May-14 18:00N 51°15' E 004°21'0 0.0
2018-May-14 17:30N 51°15' E 004°21'0 0.0
2018-May-14 17:00N 51°15' E 004°21'0 0.0
2018-May-14 16:30N 51°15' E 004°21'0 0.0
2018-May-14 16:00N 51°15' E 004°21'0 0.0
2018-May-14 15:30N 51°15' E 004°21'0 0.0
2018-May-14 15:00N 51°15' E 004°21'0 0.0
2018-May-14 14:30N 51°15' E 004°21'0 0.0
2018-May-14 14:00N 51°15' E 004°21'0 0.0
2018-May-14 13:30N 51°15' E 004°21'0 0.0
2018-May-14 13:00N 51°15' E 004°21'0 0.0
2018-May-14 12:30N 51°15' E 004°21'0 0.0
2018-May-14 11:51N 51°15' E 004°21'0 0.0
2018-May-14 11:30N 51°15' E 004°21'0 0.0
2018-May-14 11:00N 51°15' E 004°21'0 0.0
2018-May-14 10:30N 51°15' E 004°21'0 0.0
2018-May-14 10:00N 51°15' E 004°21'0 0.0
2018-May-14 09:30N 51°15' E 004°21'0 0.0
2018-May-14 09:00N 51°15' E 004°21'0 0.0
2018-May-14 08:30N 51°15' E 004°21'0 0.0
2018-May-14 08:00N 51°15' E 004°21'0 0.0
2018-May-14 07:30N 51°15' E 004°21'0 0.0
2018-May-14 07:00N 51°15' E 004°21'0 0.0
2018-May-14 06:30N 51°15' E 004°21'0 0.0
2018-May-14 06:00N 51°15' E 004°21'0 0.0
2018-May-14 05:30N 51°15' E 004°21'0 0.0
2018-May-14 05:00N 51°15' E 004°21'0 0.0
2018-May-14 04:30N 51°15' E 004°21'0 0.0
2018-May-14 04:00N 51°15' E 004°21'0 0.0
2018-May-14 03:30N 51°15' E 004°21'0 0.0
2018-May-14 03:00N 51°15' E 004°21'0 0.0
2018-May-14 02:30N 51°15' E 004°21'0 0.0
2018-May-14 02:00N 51°15' E 004°21'0 0.0
2018-May-14 01:30N 51°15' E 004°21'0 0.0
2018-May-14 01:00N 51°15' E 004°21'0 0.0
2018-May-14 00:30N 51°15' E 004°21'0 0.0
2018-May-14 00:00N 51°15' E 004°21'0 0.0
2018-May-13 23:30N 51°15' E 004°21'0 0.0
2018-May-13 23:00N 51°15' E 004°21'0 0.0
2018-May-13 22:30N 51°15' E 004°21'0 0.0
2018-May-13 22:00N 51°15' E 004°21'0 0.0
2018-May-13 21:30N 51°15' E 004°21'0 0.0
2018-May-13 21:00N 51°15' E 004°21'0 0.0
2018-May-13 20:30N 51°15' E 004°21'0 0.0
2018-May-13 20:00N 51°15' E 004°21'0 0.0
2018-May-13 19:30N 51°15' E 004°21'0 0.0
2018-May-13 19:00N 51°15' E 004°21'0 0.0
2018-May-13 18:30N 51°15' E 004°21'0 0.0
2018-May-13 18:00N 51°15' E 004°21'0 0.0
2018-May-13 17:30N 51°15' E 004°21'0 0.0
2018-May-13 17:00N 51°15' E 004°21'0 0.0
2018-May-13 16:30N 51°15' E 004°21'0 0.0
2018-May-13 16:00N 51°15' E 004°21'0 0.0
2018-May-13 15:30N 51°15' E 004°21'0 0.0
2018-May-13 15:00N 51°15' E 004°21'0 0.0
2018-May-13 14:30N 51°15' E 004°21'0 0.0
2018-May-13 14:00N 51°15' E 004°21'0 0.0
2018-May-13 13:30N 51°15' E 004°21'0 0.0
2018-May-13 13:00N 51°15' E 004°21'0 0.0
2018-May-13 12:30N 51°15' E 004°21'0 0.0
2018-May-13 12:00N 51°15' E 004°21'0 0.0
2018-May-13 11:30N 51°15' E 004°21'0 0.0
2018-May-13 11:00N 51°15' E 004°21'0 0.0
2018-May-13 10:28N 51°15' E 004°21'0 0.0
2018-May-13 09:58N 51°15' E 004°21'0 0.0
2018-May-13 09:28N 51°15' E 004°21'0 0.0
2018-May-13 08:58N 51°15' E 004°21'0 0.0
2018-May-13 08:28N 51°15' E 004°21'0 0.0
2018-May-13 07:58N 51°15' E 004°21'0 0.0
2018-May-13 07:28N 51°15' E 004°21'0 0.0
2018-May-13 06:58N 51°15' E 004°21'0 0.0
2018-May-13 06:28N 51°15' E 004°21'0 0.0
2018-May-13 05:58N 51°15' E 004°21'0 0.0
2018-May-13 05:28N 51°15' E 004°21'0 0.0
2018-May-13 04:58N 51°15' E 004°21'0 0.0
2018-May-13 04:28N 51°15' E 004°21'0 0.0
2018-May-13 03:58N 51°15' E 004°21'0 0.0
2018-May-13 03:28N 51°15' E 004°21'0 0.0
2018-May-13 02:58N 51°15' E 004°21'0 0.0
2018-May-13 02:28N 51°15' E 004°21'0 0.0
2018-May-13 02:00N 51°15' E 004°21'0 0.0
2018-May-13 01:29N 51°15' E 004°21'0 0.0
2018-May-13 00:56N 51°15' E 004°21'0 0.0
2018-May-13 00:29N 51°15' E 004°21'0 0.0
2018-May-12 23:59N 51°15' E 004°21'0 0.0
2018-May-12 23:29N 51°15' E 004°21'0 0.0
2018-May-12 22:59N 51°15' E 004°21'0 0.0
2018-May-12 22:29N 51°15' E 004°21'0 0.0
2018-May-12 21:59N 51°15' E 004°21'0 0.0
2018-May-12 21:29N 51°15' E 004°21'0 0.0
2018-May-12 20:59N 51°15' E 004°21'0 0.0
2018-May-12 20:29N 51°15' E 004°21'0 0.0
2018-May-12 19:59N 51°15' E 004°21'0 0.0
2018-May-12 19:29N 51°15' E 004°21'  
Track history (hours):
 
Tides and Currents Weather Stations Pressure Air Temp Water Temp Dewpoint Dewpoint Depression Visibility Wind Speed Wind Dir Waves Ship Positions

MSC Suez

Last reported at 2018-May-22 19:28 UTC. Time now 2018-May-22 19:51 UTC.
Position N 51°17' E 004°15'.

Length 237 m; draft 6.2 m.

Type: Ship. MMSI: 355289000.

Date/timePositionNaut miles runAvg speedWind from/ knotsBaromVisibWave heightAir tempDewpointWater temp
2018-May-22 19:28N 51°17' E 004°15'0 0.0
2018-May-22 18:58N 51°17' E 004°15'0 0.0
2018-May-22 18:28N 51°17' E 004°15'0 0.0
2018-May-22 17:58N 51°17' E 004°15'0 0.0
2018-May-22 17:25N 51°17' E 004°15'0 0.0
2018-May-22 16:58N 51°17' E 004°15'0 0.0
2018-May-22 16:28N 51°17' E 004°15'0 0.0
2018-May-22 15:58N 51°17' E 004°15'0 0.0
2018-May-22 15:28N 51°17' E 004°15'0 0.0
2018-May-22 14:58N 51°17' E 004°15'0 0.0
2018-May-22 14:28N 51°17' E 004°15'0 0.0
2018-May-22 13:58N 51°17' E 004°15'0 0.0
2018-May-22 13:28N 51°17' E 004°15'0 0.0
2018-May-22 12:58N 51°17' E 004°15'0 0.0
2018-May-22 12:25N 51°17' E 004°15'0 0.0
2018-May-22 11:58N 51°17' E 004°15'0 0.0
2018-May-22 11:28N 51°17' E 004°15'0 0.0
2018-May-22 10:55N 51°17' E 004°15'0 0.0
2018-May-22 10:28N 51°17' E 004°15'0 0.0
2018-May-22 09:58N 51°17' E 004°15'0 0.0
2018-May-22 09:22N 51°17' E 004°15'0 0.0
2018-May-22 08:55N 51°17' E 004°15'0 0.0
2018-May-22 08:28N 51°17' E 004°15'0 0.0
2018-May-22 07:52N 51°17' E 004°15'0 0.0
2018-May-22 07:28N 51°17' E 004°15'0 0.0
2018-May-22 06:58N 51°17' E 004°15'0 0.0
2018-May-22 06:28N 51°17' E 004°15'0 0.0
2018-May-22 05:58N 51°17' E 004°15'0 0.0
2018-May-22 05:28N 51°17' E 004°15'0 0.0
2018-May-22 04:58N 51°17' E 004°15'0 0.0
2018-May-22 04:28N 51°17' E 004°15'0 0.0
2018-May-22 03:58N 51°17' E 004°15'0 0.1
2018-May-22 03:28N 51°17' E 004°15'0 0.4
2018-May-22 02:58N 51°17' E 004°15'0 0.0
2018-May-22 02:25N 51°17' E 004°15'0 0.0
2018-May-22 01:58N 51°17' E 004°15'0 0.0
2018-May-22 01:28N 51°17' E 004°15'0 0.0
2018-May-22 00:58N 51°17' E 004°15'0 0.0
2018-May-22 00:28N 51°17' E 004°15'0 0.0
2018-May-21 23:58N 51°17' E 004°15'0 0.0
2018-May-21 23:28N 51°17' E 004°15'0 0.0
2018-May-21 22:52N 51°17' E 004°15'0 0.0
2018-May-21 22:28N 51°17' E 004°15'0 0.0
2018-May-21 21:58N 51°17' E 004°15'0 0.1
2018-May-21 21:28N 51°17' E 004°15'0 0.1
2018-May-21 20:58N 51°17' E 004°15'0 0.0
2018-May-21 20:28N 51°17' E 004°15'0 0.0
2018-May-21 19:58N 51°17' E 004°15'0 0.0
2018-May-21 19:28N 51°17' E 004°15'0 0.0
2018-May-21 18:55N 51°17' E 004°15'0 0.0
2018-May-21 18:28N 51°17' E 004°15'0 0.0
2018-May-21 17:58N 51°17' E 004°15'0 0.0
2018-May-21 17:28N 51°17' E 004°15'0 0.0
2018-May-21 16:58N 51°17' E 004°15'0 0.0
2018-May-21 16:28N 51°17' E 004°15'0 0.0
2018-May-21 15:58N 51°17' E 004°15'0 0.0
2018-May-21 15:28N 51°17' E 004°15'0 0.0
2018-May-21 14:55N 51°17' E 004°15'0 0.0
2018-May-21 14:28N 51°17' E 004°15'0 0.0
2018-May-21 13:58N 51°17' E 004°15'0 0.0
2018-May-21 13:28N 51°17' E 004°15'0 0.0
2018-May-21 12:58N 51°17' E 004°15'0 0.0
2018-May-21 12:28N 51°17' E 004°15'0 0.0
2018-May-21 11:55N 51°17' E 004°15'0 0.0
2018-May-21 11:28N 51°17' E 004°15'1 1.6
2018-May-21 11:00N 51°18' E 004°16'3 5.5
2018-May-21 10:30N 51°20' E 004°16'1 1.4
2018-May-21 10:00N 51°21' E 004°17'0 0.0
2018-May-21 09:27N 51°21' E 004°17'1 1.5
2018-May-21 09:00N 51°20' E 004°18'4 7.0
2018-May-21 08:30N 51°17' E 004°20'2 2.9
2018-May-21 07:59N 51°16' E 004°21'0 0.0
2018-May-21 07:29N 51°16' E 004°21'0 0.0
2018-May-21 06:59N 51°16' E 004°21'0 0.0
2018-May-21 06:29N 51°16' E 004°21'0 0.0
2018-May-21 05:59N 51°16' E 004°21'0 0.0
2018-May-21 05:29N 51°16' E 004°21'0 0.0
2018-May-21 04:59N 51°16' E 004°21'0 0.0
2018-May-21 04:29N 51°16' E 004°21'0 0.0
2018-May-21 03:59N 51°16' E 004°21'0 0.0
2018-May-21 03:29N 51°16' E 004°21'0 0.0
2018-May-21 02:59N 51°16' E 004°21'0 0.0
2018-May-21 02:29N 51°16' E 004°21'0 0.0
2018-May-21 01:59N 51°16' E 004°21'0 0.0
2018-May-21 01:29N 51°16' E 004°21'0 0.0
2018-May-21 00:59N 51°16' E 004°21'0 0.0
2018-May-21 00:29N 51°16' E 004°21'0 0.0
2018-May-20 23:59N 51°16' E 004°21'0 0.0
2018-May-20 23:29N 51°16' E 004°21'0 0.0
2018-May-20 22:59N 51°16' E 004°21'0 0.0
2018-May-20 22:29N 51°16' E 004°21'0 0.0
2018-May-20 21:59N 51°16' E 004°21'0 0.0
2018-May-20 21:29N 51°16' E 004°21'0 0.0
2018-May-20 20:59N 51°16' E 004°21'0 0.0
2018-May-20 20:29N 51°16' E 004°21'0 0.0
2018-May-20 19:56N 51°16' E 004°21'0 0.0
2018-May-20 19:29N 51°16' E 004°21'0 0.0
2018-May-20 18:59N 51°16' E 004°21'0 0.0
2018-May-20 18:29N 51°16' E 004°21'0 0.0
2018-May-20 17:59N 51°16' E 004°21'0 0.0
2018-May-20 17:29N 51°16' E 004°21'0 0.0
2018-May-20 16:59N 51°16' E 004°21'0 0.0
2018-May-20 16:29N 51°16' E 004°21'0 0.0
2018-May-20 15:59N 51°16' E 004°21'0 0.0
2018-May-20 15:29N 51°16' E 004°21'0 0.0
2018-May-20 14:59N 51°16' E 004°21'0 0.0
2018-May-20 14:29N 51°16' E 004°21'0 0.0
2018-May-20 13:59N 51°16' E 004°21'0 0.0
2018-May-20 13:26N 51°16' E 004°21'0 0.0
2018-May-20 12:59N 51°16' E 004°21'0 0.0
2018-May-20 12:29N 51°16' E 004°21'0 0.0
2018-May-20 11:59N 51°16' E 004°21'0 0.0
2018-May-20 11:29N 51°16' E 004°21'0 0.0
2018-May-20 10:59N 51°16' E 004°21'0 0.0
2018-May-20 10:29N 51°16' E 004°21'0 0.0
2018-May-20 09:59N 51°16' E 004°21'0 0.0
2018-May-20 09:29N 51°16' E 004°21'0 0.0
2018-May-20 08:59N 51°16' E 004°21'0 0.0
2018-May-20 08:29N 51°16' E 004°21'0 0.0
2018-May-20 07:59N 51°16' E 004°21'0 0.0
2018-May-20 07:29N 51°16' E 004°21'0 0.0
2018-May-20 06:59N 51°16' E 004°21'0 0.0
2018-May-20 06:29N 51°16' E 004°21'0 0.0
2018-May-20 05:59N 51°16' E 004°21'0 0.0
2018-May-20 05:29N 51°16' E 004°21'0 0.0
2018-May-20 04:59N 51°16' E 004°21'0 0.0
2018-May-20 04:29N 51°16' E 004°21'0 0.0
2018-May-20 03:59N 51°16' E 004°21'0 0.0
2018-May-20 03:29N 51°16' E 004°21'0 0.0
2018-May-20 02:59N 51°16' E 004°21'0 0.0
2018-May-20 02:29N 51°16' E 004°21'0 0.0
2018-May-20 01:59N 51°16' E 004°21'0 0.0
2018-May-20 01:26N 51°16' E 004°21'0 0.0
2018-May-20 00:59N 51°16' E 004°21'0 0.0
2018-May-20 00:29N 51°16' E 004°21'0 0.0
2018-May-19 23:59N 51°16' E 004°21'0 0.0
2018-May-19 23:29N 51°16' E 004°21'0 0.0
2018-May-19 22:59N 51°16' E 004°21'0 0.0
2018-May-19 22:29N 51°16' E 004°21'0 0.0
2018-May-19 21:59N 51°16' E 004°21'0 0.0
2018-May-19 21:29N 51°16' E 004°21'0 0.0
2018-May-19 20:59N 51°16' E 004°21'0 0.0
2018-May-19 20:26N 51°16' E 004°21'0 0.0
2018-May-19 19:59N 51°16' E 004°21'0 0.0
2018-May-19 19:29N 51°16' E 004°21'0 0.0
2018-May-19 18:59N 51°16' E 004°21'0 0.0
2018-May-19 18:29N 51°16' E 004°21'0 0.0
2018-May-19 17:59N 51°16' E 004°21'0 0.0
2018-May-19 17:29N 51°16' E 004°21'0 0.0
2018-May-19 16:59N 51°16' E 004°21'0 0.0
2018-May-19 16:29N 51°16' E 004°21'0 0.0
2018-May-19 15:59N 51°16' E 004°21'0 0.0
2018-May-19 15:29N 51°16' E 004°21'0 0.0
2018-May-19 14:59N 51°16' E 004°21'0 0.0
2018-May-19 14:29N 51°16' E 004°21'0 0.0
2018-May-19 13:59N 51°16' E 004°21'0 0.0
2018-May-19 13:29N 51°16' E 004°21'0 0.0
2018-May-19 12:59N 51°16' E 004°21'0 0.0
2018-May-19 12:26N 51°16' E 004°21'0 0.0
2018-May-19 11:59N 51°16' E 004°21'0 0.0
2018-May-19 11:29N 51°16' E 004°21'0 0.0
2018-May-19 10:59N 51°16' E 004°21'0 0.0
2018-May-19 10:29N 51°16' E 004°21'0 0.0
2018-May-19 09:59N 51°16' E 004°21'0 0.0
2018-May-19 09:29N 51°16' E 004°21'0 0.0
2018-May-19 08:59N 51°16' E 004°21'0 0.0
2018-May-19 08:29N 51°16' E 004°21'0 0.0
2018-May-19 07:59N 51°16' E 004°21'0 0.0
2018-May-19 07:29N 51°16' E 004°21'0 0.0
2018-May-19 06:59N 51°16' E 004°21'0 0.0
2018-May-19 06:29N 51°16' E 004°21'0 0.0
2018-May-19 05:59N 51°16' E 004°21'0 0.0
2018-May-19 05:29N 51°16' E 004°21'0 0.0
2018-May-19 04:59N 51°16' E 004°21'0 0.0
2018-May-19 04:29N 51°16' E 004°21'0 0.0
2018-May-19 03:59N 51°16' E 004°21'0 0.0
2018-May-19 03:29N 51°16' E 004°21'0 0.0
2018-May-19 02:59N 51°16' E 004°21'0 0.0
2018-May-19 02:29N 51°16' E 004°21'0 0.0
2018-May-19 01:59N 51°16' E 004°21'0 0.0
2018-May-19 01:29N 51°16' E 004°21'0 0.0
2018-May-19 00:59N 51°16' E 004°21'0 0.0
2018-May-19 00:29N 51°16' E 004°21'0 0.0
2018-May-18 23:59N 51°16' E 004°21'0 0.0
2018-May-18 23:29N 51°16' E 004°21'0 0.0
2018-May-18 22:59N 51°16' E 004°21'0 0.0
2018-May-18 22:29N 51°16' E 004°21'0 0.0
2018-May-18 21:59N 51°16' E 004°21'0 0.0
2018-May-18 21:29N 51°16' E 004°21'0 0.0
2018-May-18 20:59N 51°16' E 004°21'0 0.0
2018-May-18 20:29N 51°16' E 004°21'0 0.0
2018-May-18 19:59N 51°16' E 004°21'0 0.0
2018-May-18 19:29N 51°16' E 004°21'0 0.0
2018-May-18 18:59N 51°16' E 004°21'0 0.0
2018-May-18 18:29N 51°16' E 004°21'0 0.0
2018-May-18 17:59N 51°16' E 004°21'0 0.0
2018-May-18 17:29N 51°16' E 004°21'0 0.0
2018-May-18 16:59N 51°16' E 004°21'0 0.0
2018-May-18 16:29N 51°16' E 004°21'0 0.0
2018-May-18 15:59N 51°16' E 004°21'0 0.0
2018-May-18 15:29N 51°16' E 004°21'0 0.0
2018-May-18 14:59N 51°16' E 004°21'0 0.0
2018-May-18 14:29N 51°16' E 004°21'0 0.0
2018-May-18 13:59N 51°16' E 004°21'0 0.0
2018-May-18 13:29N 51°16' E 004°21'0 0.0
2018-May-18 12:59N 51°16' E 004°21'0 0.0
2018-May-18 12:29N 51°16' E 004°21'0 0.0
2018-May-18 11:59N 51°16' E 004°21'0 0.0
2018-May-18 11:29N 51°16' E 004°21'0 0.0
2018-May-18 10:59N 51°16' E 004°21'0 0.0
2018-May-18 10:29N 51°16' E 004°21'0 0.1
2018-May-18 09:59N 51°16' E 004°21'1 0.9
2018-May-18 09:26N 51°15' E 004°22'0 0.2
2018-May-18 08:59N 51°15' E 004°21'0 0.0
2018-May-18 08:29N 51°15' E 004°21'0 0.0
2018-May-18 07:59N 51°15' E 004°21'0 0.0
2018-May-18 07:29N 51°15' E 004°21'0 0.0
2018-May-18 06:59N 51°15' E 004°21'0 0.0
2018-May-18 06:29N 51°15' E 004°21'0 0.0
2018-May-18 05:59N 51°15' E 004°21'0 0.0
2018-May-18 05:29N 51°15' E 004°21'0 0.0
2018-May-18 04:59N 51°15' E 004°21'0 0.0
2018-May-18 04:29N 51°15' E 004°21'0 0.0
2018-May-18 03:56N 51°15' E 004°21'0 0.0
2018-May-18 03:29N 51°15' E 004°21'0 0.0
2018-May-18 02:59N 51°15' E 004°21'0 0.0
2018-May-18 02:29N 51°15' E 004°21'0 0.0
2018-May-18 01:59N 51°15' E 004°21'0 0.0
2018-May-18 01:26N 51°15' E 004°21'0 0.0
2018-May-18 00:59N 51°15' E 004°21'0 0.0
2018-May-18 00:29N 51°15' E 004°21'0 0.0
2018-May-17 23:59N 51°15' E 004°21'0 0.0
2018-May-17 23:29N 51°15' E 004°21'0 0.0
2018-May-17 22:59N 51°15' E 004°21'0 0.0
2018-May-17 22:29N 51°15' E 004°21'0 0.0
2018-May-17 21:56N 51°15' E 004°21'0 0.0
2018-May-17 21:29N 51°15' E 004°21'0 0.0
2018-May-17 20:56N 51°15' E 004°21'0 0.0
2018-May-17 20:26N 51°15' E 004°21'0 0.0
2018-May-17 19:59N 51°15' E 004°21'0 0.0
2018-May-17 19:29N 51°15' E 004°21'0 0.0
2018-May-17 18:59N 51°15' E 004°21'0 0.0
2018-May-17 18:29N 51°15' E 004°21'0 0.0
2018-May-17 17:59N 51°15' E 004°21'0 0.0
2018-May-17 17:29N 51°15' E 004°21'0 0.0
2018-May-17 16:59N 51°15' E 004°21'0 0.0
2018-May-17 16:29N 51°15' E 004°21'0 0.0
2018-May-17 15:59N 51°15' E 004°21'0 0.0
2018-May-17 15:23N 51°15' E 004°21'0 0.0
2018-May-17 14:59N 51°15' E 004°21'0 0.0
2018-May-17 14:29N 51°15' E 004°21'0 0.0
2018-May-17 13:59N 51°15' E 004°21'0 0.0
2018-May-17 13:29N 51°15' E 004°21'0 0.0
2018-May-17 12:53N 51°15' E 004°21'0 0.0
2018-May-17 12:29N 51°15' E 004°21'0 0.0
2018-May-17 11:59N 51°15' E 004°21'0 0.0
2018-May-17 11:29N 51°15' E 004°21'0 0.0
2018-May-17 10:59N 51°15' E 004°21'0 0.0
2018-May-17 10:26N 51°15' E 004°21'0 0.0
2018-May-17 09:53N 51°15' E 004°21'0 0.0
2018-May-17 09:29N 51°15' E 004°21'0 0.0
2018-May-17 08:59N 51°15' E 004°21'0 0.0
2018-May-17 08:29N 51°15' E 004°21'0 0.0
2018-May-17 07:59N 51°15' E 004°21'0 0.0
2018-May-17 07:29N 51°15' E 004°21'0 0.0
2018-May-17 06:53N 51°15' E 004°21'0 0.0
2018-May-17 06:23N 51°15' E 004°21'0 0.0
2018-May-17 05:53N 51°15' E 004°21'0 0.0
2018-May-17 05:26N 51°15' E 004°21'0 0.0
2018-May-17 04:59N 51°15' E 004°21'0 0.0
2018-May-17 04:29N 51°15' E 004°21'0 0.0
2018-May-17 03:59N 51°15' E 004°21'0 0.0
2018-May-17 03:29N 51°15' E 004°21'0 0.0
2018-May-17 02:59N 51°15' E 004°21'0 0.0
2018-May-17 02:29N 51°15' E 004°21'0 0.0
2018-May-17 01:59N 51°15' E 004°21'0 0.0
2018-May-17 01:26N 51°15' E 004°21'0 0.0
2018-May-17 00:59N 51°15' E 004°21'0 0.0
2018-May-17 00:29N 51°15' E 004°21'0 0.0
2018-May-16 23:59N 51°15' E 004°21'0 0.0
2018-May-16 23:29N 51°15' E 004°21'0 0.0
2018-May-16 22:59N 51°15' E 004°21'0 0.0
2018-May-16 22:29N 51°15' E 004°21'0 0.0
2018-May-16 21:59N 51°15' E 004°21'0 0.0
2018-May-16 21:29N 51°15' E 004°21'0 0.0
2018-May-16 20:59N 51°15' E 004°21'0 0.0
2018-May-16 20:29N 51°15' E 004°21'0 0.0
2018-May-16 19:56N 51°15' E 004°21'0 0.0
2018-May-16 19:29N 51°15' E 004°21'0 0.0
2018-May-16 18:59N 51°15' E 004°21'0 0.0
2018-May-16 18:29N 51°15' E 004°21'0 0.0
2018-May-16 17:59N 51°15' E 004°21'0 0.0
2018-May-16 17:26N 51°15' E 004°21'0 0.0
2018-May-16 16:59N 51°15' E 004°21'0 0.0
2018-May-16 16:29N 51°15' E 004°21'0 0.0
2018-May-16 15:59N 51°15' E 004°21'0 0.0
2018-May-16 15:29N 51°15' E 004°21'0 0.0
2018-May-16 14:59N 51°15' E 004°21'0 0.0
2018-May-16 14:29N 51°15' E 004°21'0 0.0
2018-May-16 13:59N 51°15' E 004°21'0 0.0
2018-May-16 13:29N 51°15' E 004°21'0 0.0
2018-May-16 12:56N 51°15' E 004°21'0 0.0
2018-May-16 12:29N 51°15' E 004°21'0 0.0
2018-May-16 11:59N 51°15' E 004°21'0 0.0
2018-May-16 11:29N 51°15' E 004°21'0 0.0
2018-May-16 10:59N 51°15' E 004°21'0 0.0
2018-May-16 10:29N 51°15' E 004°21'0 0.0
2018-May-16 09:59N 51°15' E 004°21'0 0.0
2018-May-16 09:29N 51°15' E 004°21'0 0.0
2018-May-16 08:59N 51°15' E 004°21'0 0.0
2018-May-16 08:29N 51°15' E 004°21'0 0.0
2018-May-16 07:59N 51°15' E 004°21'0 0.0
2018-May-16 07:29N 51°15' E 004°21'0 0.0
2018-May-16 06:59N 51°15' E 004°21'0 0.0
2018-May-16 06:29N 51°15' E 004°21'0 0.0
2018-May-16 05:59N 51°15' E 004°21'0 0.0
2018-May-16 05:26N 51°15' E 004°21'0 0.0
2018-May-16 04:59N 51°15' E 004°21'0 0.0
2018-May-16 04:29N 51°15' E 004°21'0 0.0
2018-May-16 03:59N 51°15' E 004°21'0 0.0
2018-May-16 03:29N 51°15' E 004°21'0 0.0
2018-May-16 02:59N 51°15' E 004°21'0 0.0
2018-May-16 02:29N 51°15' E 004°21'0 0.0
2018-May-16 01:59N 51°15' E 004°21'0 0.0
2018-May-16 01:29N 51°15' E 004°21'0 0.0
2018-May-16 00:56N 51°15' E 004°21'0 0.0
2018-May-16 00:30N 51°15' E 004°21'0 0.0
2018-May-16 00:00N 51°15' E 004°21'0 0.0
2018-May-15 23:30N 51°15' E 004°21'0 0.0
2018-May-15 23:00N 51°15' E 004°21'0 0.0
2018-May-15 22:30N 51°15' E 004°21'0 0.0
2018-May-15 22:00N 51°15' E 004°21'0 0.0
2018-May-15 21:30N 51°15' E 004°21'0 0.0
2018-May-15 21:00N 51°15' E 004°21'0 0.0
2018-May-15 20:27N 51°15' E 004°21'0 0.0
2018-May-15 19:57N 51°15' E 004°21'0 0.0
2018-May-15 19:30N 51°15' E 004°21'0 0.0
2018-May-15 19:00N 51°15' E 004°21'0 0.0
2018-May-15 18:30N 51°15' E 004°21'0 0.0
2018-May-15 18:00N 51°15' E 004°21'0 0.0
2018-May-15 17:30N 51°15' E 004°21'0 0.0
2018-May-15 17:00N 51°15' E 004°21'0 0.0
2018-May-15 16:30N 51°15' E 004°21'0 0.0
2018-May-15 16:00N 51°15' E 004°21'0 0.0
2018-May-15 15:30N 51°15' E 004°21'0 0.0
2018-May-15 15:00N 51°15' E 004°21'0 0.0
2018-May-15 14:30N 51°15' E 004°21'0 0.0
2018-May-15 14:00N 51°15' E 004°21'0 0.0
2018-May-15 13:30N 51°15' E 004°21'0 0.0
2018-May-15 13:00N 51°15' E 004°21'0 0.0
2018-May-15 12:30N 51°15' E 004°21'0 0.0
2018-May-15 12:00N 51°15' E 004°21'0 0.0
2018-May-15 11:30N 51°15' E 004°21'0 0.0
2018-May-15 11:00N 51°15' E 004°21'0 0.0
2018-May-15 10:30N 51°15' E 004°21'0 0.0
2018-May-15 10:00N 51°15' E 004°21'0 0.0
2018-May-15 09:30N 51°15' E 004°21'0 0.0
2018-May-15 09:00N 51°15' E 004°21'0 0.0
2018-May-15 08:30N 51°15' E 004°21'0 0.0
2018-May-15 08:00N 51°15' E 004°21'0 0.0
2018-May-15 07:30N 51°15' E 004°21'0 0.0
2018-May-15 07:00N 51°15' E 004°21'0 0.0
2018-May-15 06:30N 51°15' E 004°21'0 0.0
2018-May-15 05:30N 51°15' E 004°21'0 0.0
2018-May-15 05:00N 51°15' E 004°21'0 0.0
2018-May-15 04:30N 51°15' E 004°21'0 0.0
2018-May-15 04:00N 51°15' E 004°21'0 0.0
2018-May-15 03:30N 51°15' E 004°21'0 0.0
2018-May-15 03:00N 51°15' E 004°21'0 0.0
2018-May-15 02:30N 51°15' E 004°21'0 0.0
2018-May-15 02:00N 51°15' E 004°21'0 0.0
2018-May-15 01:30N 51°15' E 004°21'0 0.0
2018-May-15 01:00N 51°15' E 004°21'0 0.0
2018-May-15 00:30N 51°15' E 004°21'0 0.0
2018-May-15 00:00N 51°15' E 004°21'0 0.0
2018-May-14 23:30N 51°15' E 004°21'0 0.0
2018-May-14 23:00N 51°15' E 004°21'0 0.0
2018-May-14 22:30N 51°15' E 004°21'0 0.0
2018-May-14 21:57N 51°15' E 004°21'0 0.0
2018-May-14 21:30N 51°15' E 004°21'0 0.0
2018-May-14 21:00N 51°15' E 004°21'0 0.0
2018-May-14 20:30N 51°15' E 004°21'0 0.0
2018-May-14 20:00N 51°15' E 004°21'0 0.0
2018-May-14 19:30N 51°15' E 004°21'0 0.0
2018-May-14 19:00N 51°15' E 004°21'0 0.0
2018-May-14 18:30N 51°15' E 004°21'0 0.0
2018-May-14 18:00N 51°15' E 004°21'0 0.0
2018-May-14 17:30N 51°15' E 004°21'0 0.0
2018-May-14 17:00N 51°15' E 004°21'0 0.0
2018-May-14 16:30N 51°15' E 004°21'0 0.0
2018-May-14 16:00N 51°15' E 004°21'0 0.0
2018-May-14 15:30N 51°15' E 004°21'0 0.0
2018-May-14 15:00N 51°15' E 004°21'0 0.0
2018-May-14 14:30N 51°15' E 004°21'0 0.0
2018-May-14 14:00N 51°15' E 004°21'0 0.0
2018-May-14 13:30N 51°15' E 004°21'0 0.0
2018-May-14 13:00N 51°15' E 004°21'0 0.0
2018-May-14 12:30N 51°15' E 004°21'0 0.0
2018-May-14 11:51N 51°15' E 004°21'0 0.0
2018-May-14 11:30N 51°15' E 004°21'0 0.0
2018-May-14 11:00N 51°15' E 004°21'0 0.0
2018-May-14 10:30N 51°15' E 004°21'0 0.0
2018-May-14 10:00N 51°15' E 004°21'0 0.0
2018-May-14 09:30N 51°15' E 004°21'0 0.0
2018-May-14 09:00N 51°15' E 004°21'0 0.0
2018-May-14 08:30N 51°15' E 004°21'0 0.0
2018-May-14 08:00N 51°15' E 004°21'0 0.0
2018-May-14 07:30N 51°15' E 004°21'0 0.0
2018-May-14 07:00N 51°15' E 004°21'0 0.0
2018-May-14 06:30N 51°15' E 004°21'0 0.0
2018-May-14 06:00N 51°15' E 004°21'0 0.0
2018-May-14 05:30N 51°15' E 004°21'0 0.0
2018-May-14 05:00N 51°15' E 004°21'0 0.0
2018-May-14 04:30N 51°15' E 004°21'0 0.0
2018-May-14 04:00N 51°15' E 004°21'0 0.0
2018-May-14 03:30N 51°15' E 004°21'0 0.0
2018-May-14 03:00N 51°15' E 004°21'0 0.0
2018-May-14 02:30N 51°15' E 004°21'0 0.0
2018-May-14 02:00N 51°15' E 004°21'0 0.0
2018-May-14 01:30N 51°15' E 004°21'0 0.0
2018-May-14 01:00N 51°15' E 004°21'0 0.0
2018-May-14 00:30N 51°15' E 004°21'0 0.0
2018-May-14 00:00N 51°15' E 004°21'0 0.0
2018-May-13 23:30N 51°15' E 004°21'0 0.0
2018-May-13 23:00N 51°15' E 004°21'0 0.0
2018-May-13 22:30N 51°15' E 004°21'0 0.0
2018-May-13 22:00N 51°15' E 004°21'0 0.0
2018-May-13 21:30N 51°15' E 004°21'0 0.0
2018-May-13 21:00N 51°15' E 004°21'0 0.0
2018-May-13 20:30N 51°15' E 004°21'0 0.0
2018-May-13 20:00N 51°15' E 004°21'0 0.0
2018-May-13 19:30N 51°15' E 004°21'0 0.0
2018-May-13 19:00N 51°15' E 004°21'0 0.0
2018-May-13 18:30N 51°15' E 004°21'0 0.0
2018-May-13 18:00N 51°15' E 004°21'0 0.0
2018-May-13 17:30N 51°15' E 004°21'0 0.0
2018-May-13 17:00N 51°15' E 004°21'0 0.0
2018-May-13 16:30N 51°15' E 004°21'0 0.0
2018-May-13 16:00N 51°15' E 004°21'0 0.0
2018-May-13 15:30N 51°15' E 004°21'0 0.0
2018-May-13 15:00N 51°15' E 004°21'0 0.0
2018-May-13 14:30N 51°15' E 004°21'0 0.0
2018-May-13 14:00N 51°15' E 004°21'0 0.0
2018-May-13 13:30N 51°15' E 004°21'0 0.0
2018-May-13 13:00N 51°15' E 004°21'0 0.0
2018-May-13 12:30N 51°15' E 004°21'0 0.0
2018-May-13 12:00N 51°15' E 004°21'0 0.0
2018-May-13 11:30N 51°15' E 004°21'0 0.0
2018-May-13 11:00N 51°15' E 004°21'0 0.0
2018-May-13 10:28N 51°15' E 004°21'0 0.0
2018-May-13 09:58N 51°15' E 004°21'0 0.0
2018-May-13 09:28N 51°15' E 004°21'0 0.0
2018-May-13 08:58N 51°15' E 004°21'0 0.0
2018-May-13 08:28N 51°15' E 004°21'0 0.0
2018-May-13 07:58N 51°15' E 004°21'0 0.0
2018-May-13 07:28N 51°15' E 004°21'0 0.0
2018-May-13 06:58N 51°15' E 004°21'0 0.0
2018-May-13 06:28N 51°15' E 004°21'0 0.0
2018-May-13 05:58N 51°15' E 004°21'0 0.0
2018-May-13 05:28N 51°15' E 004°21'0 0.0
2018-May-13 04:58N 51°15' E 004°21'0 0.0
2018-May-13 04:28N 51°15' E 004°21'0 0.0
2018-May-13 03:58N 51°15' E 004°21'0 0.0
2018-May-13 03:28N 51°15' E 004°21'0 0.0
2018-May-13 02:58N 51°15' E 004°21'0 0.0
2018-May-13 02:28N 51°15' E 004°21'0 0.0
2018-May-13 02:00N 51°15' E 004°21'0 0.0
2018-May-13 01:29N 51°15' E 004°21'0 0.0
2018-May-13 00:56N 51°15' E 004°21'0 0.0
2018-May-13 00:29N 51°15' E 004°21'0 0.0
2018-May-12 23:59N 51°15' E 004°21'0 0.0
2018-May-12 23:29N 51°15' E 004°21'0 0.0
2018-May-12 22:59N 51°15' E 004°21'0 0.0
2018-May-12 22:29N 51°15' E 004°21'0 0.0
2018-May-12 21:59N 51°15' E 004°21'0 0.0
2018-May-12 21:29N 51°15' E 004°21'0 0.0
2018-May-12 20:59N 51°15' E 004°21'0 0.0
2018-May-12 20:29N 51°15' E 004°21'0 0.0
2018-May-12 19:59N 51°15' E 004°21'0 0.0
2018-May-12 19:29N 51°15' E 004°21'  

Dump ship's entire track history